Blue Oak Ranch Reserve, California Weather observations

Data are for 10 minute period ending at time listed.
 Day   Time   Solar   Ave.   Ave.  Ave.  Vector  Max.   Baro.   Total    
  of    of     Rad.   Air    Rel.  Wind   Wind   Wind  Press.  Precip.   
Year   Day            Temp.  Hum.  Speed  Dir.   Gust                    
2016   (PST)  Kw/m2    F      %     mph   deg.    mph    mb.     in.     
-------------------------------------------------------------------------
 205    1:10   0.00   63.3    43    0.5   319     1.6   948.9    0.00 
 205    1:20   0.00   62.7    44    0.6    73     2.5   948.8    0.00 
 205    1:30   0.00   62.4    44    0.6   258     2.3   948.7    0.00 
 205    1:40   0.00   61.4    46    0.5   266     2.6   948.8    0.00 
 205    1:50   0.00   61.0    46    1.1    72     2.8   948.7    0.00 
 205    2:00   0.00   61.1    46    0.5   287     2.5   948.5    0.00 
 205    2:10   0.00   61.2    46    2.4   295     3.6   948.5    0.00 
 205    2:20   0.00   60.8    46    2.3   297     3.5   948.4    0.00 
 205    2:30   0.00   60.7    44    1.7   321     2.7   948.3    0.00 
 205    2:40   0.00   60.7    42    0.4   324     1.6   948.3    0.00 
 205    2:50   0.00   61.0    38    0.3    15     1.2   948.2    0.00 
 205    3:00   0.00   60.8    38    0.7    37     1.6   948.2    0.00 
 205    3:10   0.00   60.6    37    0.5    37     1.8   948.2    0.00 
 205    3:20   0.00   60.4    36    0.4    29     1.8   948.2    0.00 
 205    3:30   0.00   59.5    38    0.8    36     2.4   948.2    0.00 
 205    3:40   0.00   58.9    40    0.0   118     0.4   948.2    0.00 
 205    3:50   0.00   58.7    41    0.0   218     0.1   948.2    0.00 
 205    4:00   0.00   57.9    41    0.2   266     1.2   948.2    0.00 
 205    4:10   0.00   57.4    42    0.3    35     1.6   948.2    0.00 
 205    4:20   0.00   57.2    42    0.2    43     1.5   948.2    0.00 
 205    4:30   0.00   57.3    42    0.2   274     1.6   948.3    0.00 
 205    4:40   0.00   56.7    44    0.6   324     1.9   948.3    0.00 
 205    4:50   0.00   56.2    44    0.7   313     1.5   948.4    0.00 
 205    5:00   0.00   56.7    44    0.2   322     0.9   948.3    0.00 
 205    5:10   0.01   57.2    44    0.2    91     1.2   948.4    0.00 
 205    5:20   0.01   57.4    44    0.0   136     0.6   948.4    0.00 
 205    5:30   0.01   57.7    44    0.0     0     0.0   948.3    0.00 
 205    5:40   0.01   57.5    45    0.9   301     3.1   948.4    0.00 
 205    5:50   0.01   57.9    44    0.8    75     3.1   948.4    0.00 
 205    6:00   0.02   58.4    45    1.7    60     2.7   948.4    0.00 
 205    6:10   0.04   58.4    46    0.7    33     2.0   948.4    0.00 
 205    6:20   0.11   60.8    43    0.5   300     1.7   948.4    0.00 
 205    6:30   0.18   65.2    40    0.8    55     1.7   948.5    0.00 
 205    6:40   0.21   69.7    36    1.0   286     2.3   948.4    0.00 
 205    6:50   0.24   73.0    32    1.0   286     2.2   948.2    0.00 
 205    7:00   0.27   75.5    34    0.7    83     1.5   948.4    0.00 
 205    7:10   0.30   77.4    30    0.6   100     1.6   948.7    0.00 
 205    7:20   0.33   78.9    28    0.8   123     1.8   948.9    0.00 
 205    7:30   0.36   79.5    27    0.8   112     1.9   949.0    0.00 
 205    7:40   0.39   80.2    26    1.3   216     2.9   949.1    0.00 
 205    7:50   0.42   82.1    25    1.9   259     3.9   949.1    0.00 
 205    8:00   0.45   83.2    24    2.6   247     6.7   949.1    0.00 
 205    8:10   0.48   82.7    24    2.4   247     4.6   949.1    0.00 
 205    8:20   0.51   83.0    24    2.7   226     4.9   949.1    0.00 
 205    8:30   0.54   82.3    25    4.1   238     6.5   949.1    0.00 
 205    8:40   0.57   81.6    27    4.0   242     6.7   949.1    0.00 
 205    8:50   0.60   81.2    29    3.7   242     6.9   949.2    0.00 
 205    9:00   0.62   81.2    28    4.2   232     7.9   949.1    0.00 
 205    9:10   0.65   83.1    27    5.1   260     7.8   948.9    0.00 
 205    9:20   0.68   83.7    28    3.9   248     7.0   948.8    0.00 
 205    9:30   0.70   83.2    31    5.6   235     8.4   948.8    0.00 
 205    9:40   0.72   80.9    34    5.0   230     9.0   948.9    0.00 
 205    9:50   0.74   80.2    35    3.5   217     7.1   948.9    0.00 
 205   10:00   0.76   81.8    33    3.3   194     6.1   948.8    0.00 
 205   10:10   0.78   82.8    32    4.0   227     6.5   948.8    0.00 
 205   10:20   0.80   85.4    30    5.3   254    10.3   948.6    0.00 
 205   10:30   0.82   88.2    28    6.0   269    10.0   948.5    0.00 
 205   10:40   0.83   88.8    28    6.7   280    11.2   948.4    0.00 
 205   10:50   0.85   88.4    28    5.6   257     9.6   948.3    0.00 
 205   11:00   0.86   87.5    28    5.2   252     9.4   948.3    0.00 
 205   11:10   0.87   87.5    28    6.5   257    10.5   948.2    0.00 
 205   11:20   0.88   87.0    29    7.2   250    10.7   948.1    0.00 
 205   11:30   0.89   87.0    28    7.6   247    12.7   948.1    0.00 
 205   11:40   0.89   88.5    27    6.5   246    10.7   948.0    0.00 
 205   11:50   0.90   90.5    24    8.4   265    14.1   947.9    0.00 
 205   12:00   0.90   91.7    23   10.1   279    14.7   947.8    0.00 
 205   12:10   0.90   91.3    23   10.2   286    16.0   947.7    0.00 
 205   12:20   0.90   91.1    23    9.1   283    15.0   947.7    0.00 
 205   12:30   0.90   89.3    27    7.8   256    13.2   947.8    0.00 
 205   12:40   0.90   90.2    25    8.9   285    13.4   947.7    0.00 
 205   12:50   0.90   91.0    26    8.5   279    13.2   947.6    0.00 
 205   13:00   0.86   89.2    30    7.7   245    12.7   947.6    0.00 
 205   13:10   0.89   89.6    29    8.0   242    13.7   947.4    0.00 
 205   13:20   0.88   89.7    30    8.7   244    14.3   947.4    0.00 
 205   13:30   0.87   89.7    29    8.2   244    13.8   947.3    0.00 
 205   13:40   0.86   90.4    27    7.5   254    12.5   947.2    0.00 
 205   13:50   0.85   91.1    26    8.4   255    14.0   947.2    0.00 
 205   14:00   0.83   91.4    26    9.1   271    14.4   947.1    0.00 
 205   14:10   0.82   91.2    26    9.0   270    13.5   947.1    0.00 
 205   14:20   0.80   90.7    25    9.8   263    14.8   947.0    0.00 
 205   14:30   0.79   91.9    23    8.4   277    13.3   946.9    0.00 
 205   14:40   0.77   92.6    22    8.2   274    13.1   946.8    0.00 
 205   14:50   0.75   92.5    22    8.4   274    12.8   946.7    0.00 
 205   15:00   0.72   92.2    22    8.8   276    12.3   946.6    0.00 
 205   15:10   0.70   92.1    23    8.6   267    14.8   946.6    0.00 
 205   15:20   0.68   90.7    24    8.7   260    14.7   946.6    0.00 
 205   15:30   0.65   91.3    22    8.2   277    16.5   946.5    0.00 
 205   15:40   0.63   92.0    22    7.2   281    13.2   946.4    0.00 
 205   15:50   0.60   91.0    22    7.3   269    12.5   946.3    0.00 
 205   16:00   0.57   91.6    21    7.4   274    12.3   946.2    0.00 
 205   16:10   0.55   91.8    20    6.9   260    12.4   946.2    0.00 
 205   16:20   0.52   91.3    21    8.2   280    12.6   946.1    0.00 
 205   16:30   0.48   90.6    21    8.2   269    11.8   946.0    0.00 
 205   16:40   0.46   90.5    21    8.7   281    13.9   945.9    0.00 
 205   16:50   0.42   90.2    21    8.6   288    12.5   945.9    0.00 
 205   17:00   0.39   90.1    20    8.1   277    12.4   945.9    0.00 
 205   17:10   0.36   89.7    21    7.0   278    11.9   945.8    0.00 
 205   17:20   0.33   89.0    21    6.4   280     9.4   945.7    0.00 
 205   17:30   0.30   88.8    20    6.1   272    10.7   945.7    0.00 
 205   17:40   0.27   89.0    19    5.5   270     9.1   945.6    0.00 
 205   17:50   0.24   88.1    20    5.7   264     8.6   945.5    0.00 
 205   18:00   0.21   87.4    20    5.7   274    10.0   945.7    0.00 
 205   18:10   0.18   87.0    20    5.8   277     9.3   945.8    0.00 
 205   18:20   0.15   86.7    20    5.0   277     7.3   945.8    0.00 
 205   18:30   0.13   86.2    21    4.2   275     6.9   945.8    0.00 
 205   18:40   0.10   84.7    24    4.7   256     6.5   945.8    0.00 
 205   18:50   0.07   83.0    24    4.4   296     7.2   945.9    0.00 
 205   19:00   0.05   80.5    25    4.0   325     6.8   946.0    0.00 
 205   19:10   0.02   78.6    27    2.5   302     4.5   946.1    0.00 
 205   19:20   0.01   74.0    31    2.0    14     3.6   946.1    0.00 
 205   19:30   0.01   71.4    34    1.9   302     3.6   946.2    0.00 
 205   19:40   0.00   70.0    34    0.9    74     2.3   946.1    0.00 
 205   19:50   0.00   68.7    35    1.0   321     2.5   946.0    0.00 
 205   20:00   0.00   67.6    37    1.8   295     2.7   945.8    0.00 
 205   20:10   0.00   66.7    38    0.9   286     2.6   945.7    0.00 
 205   20:20   0.00   65.9    38    0.9   279     2.9   945.6    0.00 
 205   20:30   0.00   65.4    37    0.7   280     2.2   945.5    0.00 
 205   20:40   0.00   64.5    38    1.3   301     3.1   945.5    0.00 
 205   20:50   0.00   64.0    36    1.1   286     2.9   945.4    0.00 
 205   21:00   0.00   63.8    32    1.2   315     3.1   945.4    0.00 
 205   21:10   0.00   63.8    28    0.9   339     2.7   945.4    0.00 
 205   21:20   0.00   63.5    30    0.1    58     1.3   945.4    0.00 
 205   21:30   0.00   62.9    30    0.4   318     1.4   945.4    0.00 
 205   21:40   0.00   62.0    25    0.2    45     1.1   945.4    0.00 
 205   21:50   0.00   61.8    26    0.3   275     1.2   945.4    0.00 
 205   22:00   0.00   61.3    28    1.2   298     1.7   945.3    0.00 
 205   22:10   0.00   61.5    27    1.9   299     3.8   945.2    0.00 
 205   22:20   0.00   63.1    24    0.8   309     2.6   945.1    0.00 
 205   22:30   0.00   62.7    25    0.5   272     2.1   945.0    0.00 
 205   22:40   0.00   61.7    25    1.0   300     2.5   945.0    0.00 
 205   22:50   0.00   61.2    26    0.3   311     1.7   945.0    0.00 
 205   23:00   0.00   62.0    25    0.3    58     1.6   945.0    0.00 
 205   23:10   0.00   61.7    26    0.2    58     1.0   945.1    0.00 
 205   23:20   0.00   61.3    27    0.3    53     1.5   945.0    0.00 
 205   23:30   0.00   61.6    27    0.2   297     1.2   945.0    0.00 
 205   23:40   0.00   61.5    27    0.1     8     0.9   944.9    0.00 
 205   23:50   0.00   60.9    28    0.4   277     1.7   944.9    0.00 
 206    0:00   0.00   61.0    27    1.3    51     3.1   944.9    0.00 
 206    0:10   0.00   60.8    28    2.0   351     3.5   944.9    0.00 
 206    0:20   0.00   60.0    29    0.8   318     1.6   944.8    0.00 
 206    0:30   0.00   60.4    28    0.3    96     1.3   944.7    0.00 
 206    0:40   0.00   60.5    28    0.3   246     1.5   944.7    0.00 
 206    0:50   0.00   61.0    27    0.2     6     0.9   944.7    0.00 
 206    1:00   0.00   60.8    27    0.2    33     0.8   944.6    0.00 

Return to Blue Oak Ranch Reserve graphs page.


Western Regional Climate Center,wrcc@dri.edu